sensor_id;sensor_type;location;lat;lon;timestamp;pressure;altitude;pressure_sealevel;temperature;humidity
2036;BME280;23642;42.658;23.350;2023-03-01T00:00:00;48218.09;;;-146.31;98.43
2036;BME280;23642;42.658;23.350;2023-03-01T00:02:29;48197.47;;;-146.31;98.32
2036;BME280;23642;42.658;23.350;2023-03-01T00:04:56;48162.44;;;-146.31;98.85
2036;BME280;23642;42.658;23.350;2023-03-01T00:07:24;48178.94;;;-146.31;98.63
2036;BME280;23642;42.658;23.350;2023-03-01T00:09:51;48181.00;;;-146.31;98.14
2036;BME280;23642;42.658;23.350;2023-03-01T00:12:18;48197.47;;;-146.31;97.91
2036;BME280;23642;42.658;23.350;2023-03-01T00:14:45;48224.28;;;-146.31;97.78
2036;BME280;23642;42.658;23.350;2023-03-01T00:17:16;48220.16;;;-146.31;97.54
2036;BME280;23642;42.658;23.350;2023-03-01T00:19:44;48259.31;;;-146.31;97.70
2036;BME280;23642;42.658;23.350;2023-03-01T00:22:11;48226.34;;;-146.31;97.64
2036;BME280;23642;42.658;23.350;2023-03-01T00:24:38;48255.19;;;-146.31;97.56
2036;BME280;23642;42.658;23.350;2023-03-01T00:27:04;48234.56;;;-146.31;98.27
2036;BME280;23642;42.658;23.350;2023-03-01T00:29:31;48259.31;;;-146.31;97.84
2036;BME280;23642;42.658;23.350;2023-03-01T00:31:59;48269.63;;;-146.31;97.34
2036;BME280;23642;42.658;23.350;2023-03-01T00:34:26;48273.75;;;-146.31;97.53
2036;BME280;23642;42.658;23.350;2023-03-01T00:36:54;48234.56;;;-146.31;97.74
2036;BME280;23642;42.658;23.350;2023-03-01T00:39:21;48257.25;;;-146.31;97.77
2036;BME280;23642;42.658;23.350;2023-03-01T00:41:48;48224.28;;;-146.31;97.76
2036;BME280;23642;42.658;23.350;2023-03-01T00:44:15;48205.72;;;-146.31;98.02
2036;BME280;23642;42.658;23.350;2023-03-01T00:46:42;48183.06;;;-146.31;98.13
2036;BME280;23642;42.658;23.350;2023-03-01T00:49:09;48174.81;;;-146.31;98.36
2036;BME280;23642;42.658;23.350;2023-03-01T00:51:36;48141.84;;;-146.31;98.31
2036;BME280;23642;42.658;23.350;2023-03-01T00:54:06;48158.31;;;-146.31;98.48
2036;BME280;23642;42.658;23.350;2023-03-01T00:56:34;48135.66;;;-146.31;98.40
2036;BME280;23642;42.658;23.350;2023-03-01T00:59:01;48127.41;;;-146.31;98.47
2036;BME280;23642;42.658;23.350;2023-03-01T01:01:29;48065.56;;;-146.31;98.68
2036;BME280;23642;42.658;23.350;2023-03-01T01:03:59;48065.56;;;-146.31;98.92
2036;BME280;23642;42.658;23.350;2023-03-01T01:06:29;48044.97;;;-146.31;98.86
2036;BME280;23642;42.658;23.350;2023-03-01T01:08:56;48073.81;;;-146.31;98.38
2036;BME280;23642;42.658;23.350;2023-03-01T01:11:27;48119.16;;;-146.31;97.92
2036;BME280;23642;42.658;23.350;2023-03-01T01:13:55;48127.41;;;-146.31;98.01
2036;BME280;23642;42.658;23.350;2023-03-01T01:16:24;48119.16;;;-146.31;98.03
2036;BME280;23642;42.658;23.350;2023-03-01T01:18:51;48115.03;;;-146.31;98.24
2036;BME280;23642;42.658;23.350;2023-03-01T01:21:20;48115.03;;;-146.31;98.30
2036;BME280;23642;42.658;23.350;2023-03-01T01:23:48;48086.19;;;-146.31;98.22
2036;BME280;23642;42.658;23.350;2023-03-01T01:26:18;48055.28;;;-146.31;98.32
2036;BME280;23642;42.658;23.350;2023-03-01T01:28:47;48032.59;;;-146.31;98.96
2036;BME280;23642;42.658;23.350;2023-03-01T01:31:14;48040.84;;;-146.31;98.95
2036;BME280;23642;42.658;23.350;2023-03-01T01:33:41;48026.41;;;-146.31;98.48
2036;BME280;23642;42.658;23.350;2023-03-01T01:36:07;48092.38;;;-146.31;98.15
2036;BME280;23642;42.658;23.350;2023-03-01T01:38:35;48049.09;;;-146.31;98.02
2036;BME280;23642;42.658;23.350;2023-03-01T01:41:04;48090.31;;;-146.31;97.97
2036;BME280;23642;42.658;23.350;2023-03-01T01:43:34;48096.50;;;-146.31;97.79
2036;BME280;23642;42.658;23.350;2023-03-01T01:46:04;48115.03;;;-146.31;97.66
2036;BME280;23642;42.658;23.350;2023-03-01T01:48:37;48125.34;;;-146.31;97.59
2036;BME280;23642;42.658;23.350;2023-03-01T01:51:11;48125.34;;;-146.31;97.22
2036;BME280;23642;42.658;23.350;2023-03-01T01:53:39;48162.44;;;-146.31;97.71
2036;BME280;23642;42.658;23.350;2023-03-01T01:56:11;48166.56;;;-146.31;97.52
2036;BME280;23642;42.658;23.350;2023-03-01T01:58:40;48108.84;;;-146.31;97.71
2036;BME280;23642;42.658;23.350;2023-03-01T02:01:10;48115.03;;;-146.31;97.46
2036;BME280;23642;42.658;23.350;2023-03-01T02:03:39;48156.25;;;-146.31;97.36
2036;BME280;23642;42.658;23.350;2023-03-01T02:06:15;48193.34;;;-146.31;96.74
2036;BME280;23642;42.658;23.350;2023-03-01T02:08:45;48201.59;;;-146.31;96.77
2036;BME280;23642;42.658;23.350;2023-03-01T02:11:14;48199.53;;;-146.31;96.69
2036;BME280;23642;42.658;23.350;2023-03-01T02:13:41;48269.63;;;-146.31;96.54
2036;BME280;23642;42.658;23.350;2023-03-01T02:16:11;48211.91;;;-146.31;97.11
2036;BME280;23642;42.658;23.350;2023-03-01T02:18:40;48257.25;;;-146.31;96.32
2036;BME280;23642;42.658;23.350;2023-03-01T02:21:19;48271.69;;;-146.31;96.54
2036;BME280;23642;42.658;23.350;2023-03-01T02:23:53;48261.38;;;-146.31;96.42
2036;BME280;23642;42.658;23.350;2023-03-01T02:26:27;48294.34;;;-146.31;96.47
2036;BME280;23642;42.658;23.350;2023-03-01T02:28:59;48296.41;;;-146.31;95.88
2036;BME280;23642;42.658;23.350;2023-03-01T02:31:26;48354.13;;;-146.31;95.71
2036;BME280;23642;42.658;23.350;2023-03-01T02:34:11;48325.25;;;-146.31;95.99
2036;BME280;23642;42.658;23.350;2023-03-01T02:36:41;48374.72;;;-146.31;95.04
2036;BME280;23642;42.658;23.350;2023-03-01T02:39:12;48409.78;;;-146.31;95.24
2036;BME280;23642;42.658;23.350;2023-03-01T02:41:46;48401.53;;;-146.31;95.00
2036;BME280;23642;42.658;23.350;2023-03-01T02:44:16;48407.72;;;-146.31;95.77
2036;BME280;23642;42.658;23.350;2023-03-01T02:46:44;48385.03;;;-146.31;96.15
2036;BME280;23642;42.658;23.350;2023-03-01T02:49:23;48350.00;;;-146.31;96.02
2036;BME280;23642;42.658;23.350;2023-03-01T02:52:04;48350.00;;;-146.31;96.19
2036;BME280;23642;42.658;23.350;2023-03-01T02:54:40;48370.59;;;-146.31;95.84
2036;BME280;23642;42.658;23.350;2023-03-01T02:57:09;48337.63;;;-146.31;96.14
2036;BME280;23642;42.658;23.350;2023-03-01T02:59:38;48385.03;;;-146.31;95.90
2036;BME280;23642;42.658;23.350;2023-03-01T03:02:17;48368.53;;;-146.31;95.97
2036;BME280;23642;42.658;23.350;2023-03-01T03:04:46;48343.81;;;-146.31;95.94
2036;BME280;23642;42.658;23.350;2023-03-01T03:07:12;48360.31;;;-146.31;96.01
2036;BME280;23642;42.658;23.350;2023-03-01T03:09:39;48391.22;;;-146.31;95.77
2036;BME280;23642;42.658;23.350;2023-03-01T03:12:06;48411.84;;;-146.31;95.42
2036;BME280;23642;42.658;23.350;2023-03-01T03:14:33;48405.66;;;-146.31;95.54
2036;BME280;23642;42.658;23.350;2023-03-01T03:17:01;48399.47;;;-146.31;95.58
2036;BME280;23642;42.658;23.350;2023-03-01T03:19:31;48397.41;;;-146.31;96.09
2036;BME280;23642;42.658;23.350;2023-03-01T03:21:58;48374.72;;;-146.31;95.98
2036;BME280;23642;42.658;23.350;2023-03-01T03:24:25;48382.97;;;-146.31;95.91
2036;BME280;23642;42.658;23.350;2023-03-01T03:26:52;48358.25;;;-146.31;96.33
2036;BME280;23642;42.658;23.350;2023-03-01T03:29:19;48393.28;;;-146.31;95.70
2036;BME280;23642;42.658;23.350;2023-03-01T03:31:46;48432.44;;;-146.31;95.76
2036;BME280;23642;42.658;23.350;2023-03-01T03:34:14;48403.59;;;-146.31;95.95
2036;BME280;23642;42.658;23.350;2023-03-01T03:36:43;48354.13;;;-146.31;96.33
2036;BME280;23642;42.658;23.350;2023-03-01T03:39:10;48374.72;;;-146.31;96.11
2036;BME280;23642;42.658;23.350;2023-03-01T03:41:37;48418.00;;;-146.31;95.82
2036;BME280;23642;42.658;23.350;2023-03-01T03:44:04;48413.91;;;-146.31;95.80
2036;BME280;23642;42.658;23.350;2023-03-01T03:46:30;48411.84;;;-146.31;95.34
2036;BME280;23642;42.658;23.350;2023-03-01T03:48:57;48430.38;;;-146.31;95.58
2036;BME280;23642;42.658;23.350;2023-03-01T03:51:25;48436.56;;;-146.31;95.40
2036;BME280;23642;42.658;23.350;2023-03-01T03:53:52;48403.59;;;-146.31;96.02
2036;BME280;23642;42.658;23.350;2023-03-01T03:56:19;48397.41;;;-146.31;96.24
2036;BME280;23642;42.658;23.350;2023-03-01T04:01:48;48385.03;;;-146.31;95.79
2036;BME280;23642;42.658;23.350;2023-03-01T04:04:15;48409.78;;;-146.31;95.77
2036;BME280;23642;42.658;23.350;2023-03-01T04:06:45;48393.28;;;-146.31;95.97
2036;BME280;23642;42.658;23.350;2023-03-01T04:09:13;48389.16;;;-146.31;96.24
2036;BME280;23642;42.658;23.350;2023-03-01T04:11:40;48393.28;;;-146.31;96.22
2036;BME280;23642;42.658;23.350;2023-03-01T04:14:07;48360.31;;;-146.31;96.76
2036;BME280;23642;42.658;23.350;2023-03-01T04:16:34;48321.13;;;-146.31;96.36
2036;BME280;23642;42.658;23.350;2023-03-01T04:19:02;48372.66;;;-146.31;96.75
2036;BME280;23642;42.658;23.350;2023-03-01T04:21:29;48286.09;;;-146.31;96.80
2036;BME280;23642;42.658;23.350;2023-03-01T04:23:57;48296.41;;;-146.31;96.81
2036;BME280;23642;42.658;23.350;2023-03-01T04:26:24;48312.91;;;-146.31;96.76
2036;BME280;23642;42.658;23.350;2023-03-01T04:28:52;48298.47;;;-146.31;96.96
2036;BME280;23642;42.658;23.350;2023-03-01T04:31:20;48302.59;;;-146.31;96.38
2036;BME280;23642;42.658;23.350;2023-03-01T04:33:49;48323.19;;;-146.31;96.52
2036;BME280;23642;42.658;23.350;2023-03-01T04:36:19;48370.59;;;-146.31;96.38
2036;BME280;23642;42.658;23.350;2023-03-01T04:38:47;48345.88;;;-146.31;95.81
2036;BME280;23642;42.658;23.350;2023-03-01T04:41:17;48405.66;;;-146.31;95.69
2036;BME280;23642;42.658;23.350;2023-03-01T04:43:44;48418.00;;;-146.31;95.53
2036;BME280;23642;42.658;23.350;2023-03-01T04:46:13;48403.59;;;-146.31;95.59
2036;BME280;23642;42.658;23.350;2023-03-01T04:48:42;48420.06;;;-146.31;95.87
2036;BME280;23642;42.658;23.350;2023-03-01T04:51:10;48411.84;;;-146.31;95.98
2036;BME280;23642;42.658;23.350;2023-03-01T04:53:39;48345.88;;;-146.31;96.11
2036;BME280;23642;42.658;23.350;2023-03-01T04:56:06;48389.16;;;-146.31;95.92
2036;BME280;23642;42.658;23.350;2023-03-01T04:58:35;48387.09;;;-146.31;95.59
2036;BME280;23642;42.658;23.350;2023-03-01T05:01:01;48424.19;;;-146.31;95.73
2036;BME280;23642;42.658;23.350;2023-03-01T05:03:41;48399.47;;;-146.31;95.99
2036;BME280;23642;42.658;23.350;2023-03-01T05:06:08;48385.03;;;-146.31;96.05
2036;BME280;23642;42.658;23.350;2023-03-01T05:08:36;48420.06;;;-146.31;95.86
2036;BME280;23642;42.658;23.350;2023-03-01T05:11:03;48378.84;;;-146.31;96.14
2036;BME280;23642;42.658;23.350;2023-03-01T05:13:33;48389.16;;;-146.31;95.86
2036;BME280;23642;42.658;23.350;2023-03-01T05:16:03;48403.59;;;-146.31;95.31
2036;BME280;23642;42.658;23.350;2023-03-01T05:18:34;48420.06;;;-146.31;95.74
2036;BME280;23642;42.658;23.350;2023-03-01T05:21:07;48415.94;;;-146.31;95.79
2036;BME280;23642;42.658;23.350;2023-03-01T05:23:34;48440.69;;;-146.31;95.71
2036;BME280;23642;42.658;23.350;2023-03-01T05:26:03;48407.72;;;-146.31;95.94
2036;BME280;23642;42.658;23.350;2023-03-01T05:28:31;48387.09;;;-146.31;97.00
2036;BME280;23642;42.658;23.350;2023-03-01T05:30:58;48382.97;;;-146.31;96.36
2036;BME280;23642;42.658;23.350;2023-03-01T05:33:27;48354.13;;;-146.31;96.21
2036;BME280;23642;42.658;23.350;2023-03-01T05:35:59;48374.72;;;-146.31;96.39
2036;BME280;23642;42.658;23.350;2023-03-01T05:38:26;48360.31;;;-146.31;96.09
2036;BME280;23642;42.658;23.350;2023-03-01T05:40:53;48376.78;;;-146.31;95.85
2036;BME280;23642;42.658;23.350;2023-03-01T05:43:20;48418.00;;;-146.31;95.60
2036;BME280;23642;42.658;23.350;2023-03-01T05:45:47;48465.41;;;-146.31;95.20
2036;BME280;23642;42.658;23.350;2023-03-01T05:48:13;48446.88;;;-146.31;95.89
2036;BME280;23642;42.658;23.350;2023-03-01T05:50:43;48420.06;;;-146.31;96.01
2036;BME280;23642;42.658;23.350;2023-03-01T05:53:12;48418.00;;;-146.31;95.66
2036;BME280;23642;42.658;23.350;2023-03-01T05:55:40;48457.19;;;-146.31;94.92
2036;BME280;23642;42.658;23.350;2023-03-01T05:58:10;48483.97;;;-146.31;94.43
2036;BME280;23642;42.658;23.350;2023-03-01T06:00:39;48527.25;;;-146.31;94.91
2036;BME280;23642;42.658;23.350;2023-03-01T06:03:06;48531.38;;;-146.31;94.78
2036;BME280;23642;42.658;23.350;2023-03-01T06:05:33;48543.75;;;-146.31;94.86
2036;BME280;23642;42.658;23.350;2023-03-01T06:08:02;48477.78;;;-146.31;94.44
2036;BME280;23642;42.658;23.350;2023-03-01T06:10:29;48584.97;;;-146.31;93.88
2036;BME280;23642;42.658;23.350;2023-03-01T06:12:56;48552.00;;;-146.31;93.94
2036;BME280;23642;42.658;23.350;2023-03-01T06:15:24;48595.28;;;-146.31;94.27
2036;BME280;23642;42.658;23.350;2023-03-01T06:17:53;48556.13;;;-146.31;94.27
2036;BME280;23642;42.658;23.350;2023-03-01T06:20:25;48568.47;;;-146.31;94.66
2036;BME280;23642;42.658;23.350;2023-03-01T06:22:52;48595.28;;;-146.31;94.61
2036;BME280;23642;42.658;23.350;2023-03-01T06:25:22;48547.88;;;-146.31;95.24
2036;BME280;23642;42.658;23.350;2023-03-01T06:27:51;48498.41;;;-146.31;95.31
2036;BME280;23642;42.658;23.350;2023-03-01T06:30:20;48541.69;;;-146.31;94.97
2036;BME280;23642;42.658;23.350;2023-03-01T06:32:47;48562.31;;;-146.31;95.14
2036;BME280;23642;42.658;23.350;2023-03-01T06:35:16;48539.63;;;-146.31;95.47
2036;BME280;23642;42.658;23.350;2023-03-01T06:37:53;48502.53;;;-146.31;95.31
2036;BME280;23642;42.658;23.350;2023-03-01T06:40:21;48543.75;;;-146.31;95.40
2036;BME280;23642;42.658;23.350;2023-03-01T06:42:49;48554.06;;;-146.31;94.71
2036;BME280;23642;42.658;23.350;2023-03-01T06:45:17;48543.75;;;-146.31;94.59
2036;BME280;23642;42.658;23.350;2023-03-01T06:47:44;48568.47;;;-146.31;94.42
2036;BME280;23642;42.658;23.350;2023-03-01T06:50:12;48576.72;;;-146.31;94.04
2036;BME280;23642;42.658;23.350;2023-03-01T06:52:40;48634.44;;;-146.31;92.90
2036;BME280;23642;42.658;23.350;2023-03-01T06:55:07;48758.13;;;-146.31;92.08
2036;BME280;23642;42.658;23.350;2023-03-01T06:57:36;48784.91;;;-146.31;91.96
2036;BME280;23642;42.658;23.350;2023-03-01T07:00:04;48824.09;;;-146.31;91.42
2036;BME280;23642;42.658;23.350;2023-03-01T07:02:31;48774.63;;;-146.31;92.55
2036;BME280;23642;42.658;23.350;2023-03-01T07:04:58;48840.56;;;-146.31;91.77
2036;BME280;23642;42.658;23.350;2023-03-01T07:07:26;48795.22;;;-146.31;92.27
2036;BME280;23642;42.658;23.350;2023-03-01T07:09:53;48832.34;;;-146.31;91.96
2036;BME280;23642;42.658;23.350;2023-03-01T07:12:19;48848.81;;;-146.31;91.53
2036;BME280;23642;42.658;23.350;2023-03-01T07:14:48;48923.03;;;-146.31;91.29
2036;BME280;23642;42.658;23.350;2023-03-01T07:17:14;48877.69;;;-146.31;91.45
2036;BME280;23642;42.658;23.350;2023-03-01T07:19:41;48902.41;;;-146.31;91.41
2036;BME280;23642;42.658;23.350;2023-03-01T07:22:09;48945.72;;;-146.31;90.57
2036;BME280;23642;42.658;23.350;2023-03-01T07:24:36;48935.41;;;-146.31;90.24
2036;BME280;23642;42.658;23.350;2023-03-01T07:27:03;49028.16;;;-146.31;89.88
2036;BME280;23642;42.658;23.350;2023-03-01T07:29:30;49054.97;;;-146.31;89.29
2036;BME280;23642;42.658;23.350;2023-03-01T07:31:58;49054.97;;;-146.31;90.32
2036;BME280;23642;42.658;23.350;2023-03-01T07:34:27;48997.25;;;-146.31;91.27
2036;BME280;23642;42.658;23.350;2023-03-01T07:36:54;49024.06;;;-146.31;89.47
2036;BME280;23642;42.658;23.350;2023-03-01T07:39:24;49184.84;;;-146.31;87.65
2036;BME280;23642;42.658;23.350;2023-03-01T07:41:51;49248.75;;;-146.31;87.24
2036;BME280;23642;42.658;23.350;2023-03-01T07:44:18;49215.78;;;-146.31;88.14
2036;BME280;23642;42.658;23.350;2023-03-01T07:46:45;49275.56;;;-146.31;87.76
2036;BME280;23642;42.658;23.350;2023-03-01T07:49:13;49269.38;;;-146.31;87.07
2036;BME280;23642;42.658;23.350;2023-03-01T07:51:53;49310.63;;;-146.31;86.61
2036;BME280;23642;42.658;23.350;2023-03-01T07:54:24;49380.72;;;-146.31;85.47
2036;BME280;23642;42.658;23.350;2023-03-01T07:56:51;49399.28;;;-146.31;84.99
2036;BME280;23642;42.658;23.350;2023-03-01T07:59:21;49446.69;;;-146.31;84.39
2036;BME280;23642;42.658;23.350;2023-03-01T08:01:55;49483.81;;;-146.31;85.22
2036;BME280;23642;42.658;23.350;2023-03-01T08:04:38;49510.59;;;-146.31;84.60
2036;BME280;23642;42.658;23.350;2023-03-01T08:07:05;49494.09;;;-146.31;83.94
2036;BME280;23642;42.658;23.350;2023-03-01T08:09:34;49520.91;;;-146.31;82.79
2036;BME280;23642;42.658;23.350;2023-03-01T08:12:01;49543.59;;;-146.31;83.62
2036;BME280;23642;42.658;23.350;2023-03-01T08:14:29;49545.66;;;-146.31;83.91
2036;BME280;23642;42.658;23.350;2023-03-01T08:16:56;49595.13;;;-146.31;84.61
2036;BME280;23642;42.658;23.350;2023-03-01T08:19:23;49520.91;;;-146.31;85.32
2036;BME280;23642;42.658;23.350;2023-03-01T08:21:52;49551.84;;;-146.31;84.29
2036;BME280;23642;42.658;23.350;2023-03-01T08:24:19;49617.81;;;-146.31;84.13
2036;BME280;23642;42.658;23.350;2023-03-01T08:26:46;49603.38;;;-146.31;83.59
2036;BME280;23642;42.658;23.350;2023-03-01T08:29:14;49677.63;;;-146.31;84.26
2036;BME280;23642;42.658;23.350;2023-03-01T08:31:41;49615.75;;;-146.31;83.38
2036;BME280;23642;42.658;23.350;2023-03-01T08:34:11;49710.59;;;-146.31;82.84
2036;BME280;23642;42.658;23.350;2023-03-01T08:36:41;49743.59;;;-146.31;82.73
2036;BME280;23642;42.658;23.350;2023-03-01T08:42:13;49760.09;;;-146.31;82.00
2036;BME280;23642;42.658;23.350;2023-03-01T08:44:40;49772.47;;;-146.31;81.20
2036;BME280;23642;42.658;23.350;2023-03-01T08:47:06;49819.91;;;-146.31;80.04
2036;BME280;23642;42.658;23.350;2023-03-01T08:49:35;49859.06;;;-146.31;79.45
2036;BME280;23642;42.658;23.350;2023-03-01T08:52:02;49945.69;;;-146.31;78.39
2036;BME280;23642;42.658;23.350;2023-03-01T08:54:33;49916.81;;;-146.31;78.96
2036;BME280;23642;42.658;23.350;2023-03-01T08:57:04;50007.53;;;-146.31;77.46
2036;BME280;23642;42.658;23.350;2023-03-01T08:59:32;50011.66;;;-146.31;77.15
2036;BME280;23642;42.658;23.350;2023-03-01T09:02:02;50065.28;;;-146.31;76.97
2036;BME280;23642;42.658;23.350;2023-03-01T09:04:29;50123.03;;;-146.31;76.78
2036;BME280;23642;42.658;23.350;2023-03-01T09:06:56;50199.31;;;-146.31;77.27
2036;BME280;23642;42.658;23.350;2023-03-01T09:09:27;50160.13;;;-146.31;76.84
2036;BME280;23642;42.658;23.350;2023-03-01T09:11:56;50166.31;;;-146.31;75.72
2036;BME280;23642;42.658;23.350;2023-03-01T09:14:23;50271.50;;;-146.31;76.35
2036;BME280;23642;42.658;23.350;2023-03-01T09:16:54;50211.69;;;-146.31;76.87
2036;BME280;23642;42.658;23.350;2023-03-01T09:19:20;50215.81;;;-146.31;77.12
2036;BME280;23642;42.658;23.350;2023-03-01T09:21:47;50255.00;;;-146.31;76.72
2036;BME280;23642;42.658;23.350;2023-03-01T09:24:20;50240.56;;;-146.31;76.65
2036;BME280;23642;42.658;23.350;2023-03-01T09:26:47;50290.06;;;-146.31;76.78
2036;BME280;23642;42.658;23.350;2023-03-01T09:29:14;50257.06;;;-146.31;79.17
2036;BME280;23642;42.658;23.350;2023-03-01T09:31:42;50250.88;;;-146.31;78.92
2036;BME280;23642;42.658;23.350;2023-03-01T09:34:12;50222.00;;;-146.31;79.20
2036;BME280;23642;42.658;23.350;2023-03-01T09:36:41;50215.81;;;-146.31;77.80
2036;BME280;23642;42.658;23.350;2023-03-01T09:39:08;50290.06;;;-146.31;76.82
2036;BME280;23642;42.658;23.350;2023-03-01T09:41:45;50310.69;;;-146.31;76.10
2036;BME280;23642;42.658;23.350;2023-03-01T09:44:27;50321.00;;;-146.31;77.03
2036;BME280;23642;42.658;23.350;2023-03-01T09:46:57;50304.50;;;-146.31;78.27
2036;BME280;23642;42.658;23.350;2023-03-01T09:49:27;50329.25;;;-146.31;78.17
2036;BME280;23642;42.658;23.350;2023-03-01T09:51:59;50370.50;;;-146.31;78.72
2036;BME280;23642;42.658;23.350;2023-03-01T09:54:27;50333.38;;;-146.31;79.03
2036;BME280;23642;42.658;23.350;2023-03-01T09:57:07;50300.38;;;-146.31;79.67
2036;BME280;23642;42.658;23.350;2023-03-01T09:59:48;50321.00;;;-146.31;78.74
2036;BME280;23642;42.658;23.350;2023-03-01T10:02:26;50356.06;;;-146.31;77.33
2036;BME280;23642;42.658;23.350;2023-03-01T10:05:05;50378.75;;;-146.31;76.56
2036;BME280;23642;42.658;23.350;2023-03-01T10:07:44;50360.19;;;-146.31;77.17
2036;BME280;23642;42.658;23.350;2023-03-01T10:10:21;50329.25;;;-146.31;76.60
2036;BME280;23642;42.658;23.350;2023-03-01T10:12:56;50403.50;;;-146.31;77.48
2036;BME280;23642;42.658;23.350;2023-03-01T10:15:30;50428.25;;;-146.31;77.68
2036;BME280;23642;42.658;23.350;2023-03-01T10:18:03;50413.81;;;-146.31;77.40
2036;BME280;23642;42.658;23.350;2023-03-01T10:20:43;50415.88;;;-146.31;77.59
2036;BME280;23642;42.658;23.350;2023-03-01T10:23:12;50351.94;;;-146.31;77.60
2036;BME280;23642;42.658;23.350;2023-03-01T10:25:47;50337.50;;;-146.31;77.16
2036;BME280;23642;42.658;23.350;2023-03-01T10:28:17;50432.38;;;-146.31;77.24
2036;BME280;23642;42.658;23.350;2023-03-01T10:30:46;50420.00;;;-146.31;78.75
2036;BME280;23642;42.658;23.350;2023-03-01T10:33:22;50391.13;;;-146.31;77.09
2036;BME280;23642;42.658;23.350;2023-03-01T10:35:51;50428.25;;;-146.31;76.59
2036;BME280;23642;42.658;23.350;2023-03-01T10:38:20;50393.19;;;-146.31;76.77
2036;BME280;23642;42.658;23.350;2023-03-01T10:40:53;50453.00;;;-146.31;77.11
2036;BME280;23642;42.658;23.350;2023-03-01T10:43:23;50436.50;;;-146.31;76.45
2036;BME280;23642;42.658;23.350;2023-03-01T10:45:51;50409.69;;;-146.31;77.32
2036;BME280;23642;42.658;23.350;2023-03-01T10:48:20;50415.88;;;-146.31;75.83
2036;BME280;23642;42.658;23.350;2023-03-01T10:51:07;50440.63;;;-146.31;76.08
2036;BME280;23642;42.658;23.350;2023-03-01T10:53:35;50432.38;;;-146.31;75.49
2036;BME280;23642;42.658;23.350;2023-03-01T10:56:09;50545.81;;;-146.31;74.99
2036;BME280;23642;42.658;23.350;2023-03-01T10:58:38;50708.75;;;-146.31;74.56
2036;BME280;23642;42.658;23.350;2023-03-01T11:01:06;50725.25;;;-146.31;75.18
2036;BME280;23642;42.658;23.350;2023-03-01T11:04:11;50585.00;;;-146.31;71.92
2036;BME280;23642;42.658;23.350;2023-03-01T11:06:42;50556.13;;;-146.31;70.75
2036;BME280;23642;42.658;23.350;2023-03-01T11:09:14;50556.13;;;-146.31;69.91
2036;BME280;23642;42.658;23.350;2023-03-01T11:11:42;50556.13;;;-146.31;70.01
2036;BME280;23642;42.658;23.350;2023-03-01T11:14:21;50556.13;;;-146.31;70.30
2036;BME280;23642;42.658;23.350;2023-03-01T11:16:58;50560.25;;;-146.31;70.38
2036;BME280;23642;42.658;23.350;2023-03-01T11:19:26;50618.00;;;-146.31;72.16
2036;BME280;23642;42.658;23.350;2023-03-01T11:22:01;50609.75;;;-146.31;72.60
2036;BME280;23642;42.658;23.350;2023-03-01T11:24:34;50574.69;;;-146.31;71.63
2036;BME280;23642;42.658;23.350;2023-03-01T11:27:06;50595.31;;;-146.31;71.85
2036;BME280;23642;42.658;23.350;2023-03-01T11:29:38;50566.44;;;-146.31;73.32
2036;BME280;23642;42.658;23.350;2023-03-01T11:32:08;50634.47;;;-146.31;73.69
2036;BME280;23642;42.658;23.350;2023-03-01T11:34:42;50611.78;;;-146.31;74.20
2036;BME280;23642;42.658;23.350;2023-03-01T11:37:40;50642.75;;;-146.31;75.01
2036;BME280;23642;42.658;23.350;2023-03-01T11:40:13;50636.56;;;-146.31;75.47
2036;BME280;23642;42.658;23.350;2023-03-01T11:43:01;50663.38;;;-146.31;74.27
2036;BME280;23642;42.658;23.350;2023-03-01T11:45:39;50679.88;;;-146.31;74.21
2036;BME280;23642;42.658;23.350;2023-03-01T11:48:28;50640.69;;;-146.31;73.65
2036;BME280;23642;42.658;23.350;2023-03-01T11:51:02;50609.75;;;-146.31;73.46
2036;BME280;23642;42.658;23.350;2023-03-01T11:53:49;50626.25;;;-146.31;73.83
2036;BME280;23642;42.658;23.350;2023-03-01T11:56:28;50605.59;;;-146.31;74.86
2036;BME280;23642;42.658;23.350;2023-03-01T12:02:40;50613.88;;;-146.31;71.17
2036;BME280;23642;42.658;23.350;2023-03-01T12:05:57;50648.94;;;-146.31;71.64
2036;BME280;23642;42.658;23.350;2023-03-01T12:08:41;50650.97;;;-146.31;70.38
2036;BME280;23642;42.658;23.350;2023-03-01T12:11:22;50671.63;;;-146.31;69.43
2036;BME280;23642;42.658;23.350;2023-03-01T12:14:07;50725.25;;;-146.31;69.73
2036;BME280;23642;42.658;23.350;2023-03-01T12:16:58;50754.13;;;-146.31;68.93
2036;BME280;23642;42.658;23.350;2023-03-01T12:19:45;50735.56;;;-146.31;69.22
2036;BME280;23642;42.658;23.350;2023-03-01T12:22:30;50708.75;;;-146.31;67.94
2036;BME280;23642;42.658;23.350;2023-03-01T12:25:13;50758.25;;;-146.31;68.15
2036;BME280;23642;42.658;23.350;2023-03-01T12:28:01;50828.38;;;-146.31;70.18
2036;BME280;23642;42.658;23.350;2023-03-01T12:30:40;50791.25;;;-146.31;71.39
2036;BME280;23642;42.658;23.350;2023-03-01T12:33:23;50824.25;;;-146.31;73.30
2036;BME280;23642;42.658;23.350;2023-03-01T12:36:33;50799.50;;;-146.31;72.46
2036;BME280;23642;42.658;23.350;2023-03-01T12:39:15;50816.00;;;-146.31;72.13
2036;BME280;23642;42.658;23.350;2023-03-01T12:41:53;50745.88;;;-146.31;71.30
2036;BME280;23642;42.658;23.350;2023-03-01T12:44:50;50803.63;;;-146.31;71.08
2036;BME280;23642;42.658;23.350;2023-03-01T12:47:31;50816.00;;;-146.31;72.48
2036;BME280;23642;42.658;23.350;2023-03-01T12:50:11;50797.44;;;-146.31;71.88
2036;BME280;23642;42.658;23.350;2023-03-01T12:52:46;50811.88;;;-146.31;71.78
2036;BME280;23642;42.658;23.350;2023-03-01T12:55:24;50849.00;;;-146.31;73.07
2036;BME280;23642;42.658;23.350;2023-03-01T12:58:00;50855.19;;;-146.31;72.90
2036;BME280;23642;42.658;23.350;2023-03-01T13:00:38;50813.94;;;-146.31;73.40
2036;BME280;23642;42.658;23.350;2023-03-01T13:03:17;50807.75;;;-146.31;72.52
2036;BME280;23642;42.658;23.350;2023-03-01T13:06:02;50799.50;;;-146.31;71.58
2036;BME280;23642;42.658;23.350;2023-03-01T13:08:47;50828.38;;;-146.31;70.91